sensor_id;sensor_type;location;lat;lon;timestamp;P1;durP1;ratioP1;P2;durP2;ratioP2
18174;SDS011;9212;50.894;16.714;2022-08-19T00:02:11;14.00;;;8.38;;
18174;SDS011;9212;50.894;16.714;2022-08-19T00:04:38;13.10;;;8.32;;
18174;SDS011;9212;50.894;16.714;2022-08-19T00:07:06;14.80;;;8.15;;
18174;SDS011;9212;50.894;16.714;2022-08-19T00:09:33;12.68;;;8.35;;
18174;SDS011;9212;50.894;16.714;2022-08-19T00:12:01;15.68;;;8.52;;
18174;SDS011;9212;50.894;16.714;2022-08-19T00:14:29;15.00;;;8.60;;
18174;SDS011;9212;50.894;16.714;2022-08-19T00:16:58;12.82;;;8.27;;
18174;SDS011;9212;50.894;16.714;2022-08-19T00:19:26;14.43;;;8.35;;
18174;SDS011;9212;50.894;16.714;2022-08-19T00:21:53;19.27;;;8.23;;
18174;SDS011;9212;50.894;16.714;2022-08-19T00:24:21;11.48;;;7.93;;
18174;SDS011;9212;50.894;16.714;2022-08-19T00:26:48;14.85;;;8.35;;
18174;SDS011;9212;50.894;16.714;2022-08-19T00:29:17;15.35;;;9.00;;
18174;SDS011;9212;50.894;16.714;2022-08-19T00:31:47;15.25;;;9.00;;
18174;SDS011;9212;50.894;16.714;2022-08-19T00:34:16;17.30;;;9.55;;
18174;SDS011;9212;50.894;16.714;2022-08-19T00:36:43;17.45;;;9.32;;
18174;SDS011;9212;50.894;16.714;2022-08-19T00:39:11;16.33;;;11.18;;
18174;SDS011;9212;50.894;16.714;2022-08-19T00:41:39;17.48;;;11.05;;
18174;SDS011;9212;50.894;16.714;2022-08-19T00:44:08;15.02;;;10.80;;
18174;SDS011;9212;50.894;16.714;2022-08-19T00:46:38;13.90;;;10.25;;
18174;SDS011;9212;50.894;16.714;2022-08-19T00:49:08;15.27;;;10.27;;
18174;SDS011;9212;50.894;16.714;2022-08-19T00:51:41;17.25;;;11.23;;
18174;SDS011;9212;50.894;16.714;2022-08-19T00:54:10;17.02;;;10.35;;
18174;SDS011;9212;50.894;16.714;2022-08-19T00:56:37;13.73;;;10.20;;
18174;SDS011;9212;50.894;16.714;2022-08-19T00:59:05;15.55;;;10.27;;
18174;SDS011;9212;50.894;16.714;2022-08-19T01:01:34;14.43;;;10.52;;
18174;SDS011;9212;50.894;16.714;2022-08-19T01:04:02;16.55;;;10.90;;
18174;SDS011;9212;50.894;16.714;2022-08-19T01:06:29;14.93;;;9.82;;
18174;SDS011;9212;50.894;16.714;2022-08-19T01:08:59;20.13;;;10.13;;
18174;SDS011;9212;50.894;16.714;2022-08-19T01:11:26;17.33;;;10.15;;
18174;SDS011;9212;50.894;16.714;2022-08-19T01:13:54;14.63;;;9.48;;
18174;SDS011;9212;50.894;16.714;2022-08-19T01:16:22;15.80;;;10.18;;
18174;SDS011;9212;50.894;16.714;2022-08-19T01:18:53;13.15;;;9.95;;
18174;SDS011;9212;50.894;16.714;2022-08-19T01:21:22;16.17;;;10.25;;
18174;SDS011;9212;50.894;16.714;2022-08-19T01:23:54;16.35;;;9.60;;
18174;SDS011;9212;50.894;16.714;2022-08-19T01:26:23;19.42;;;9.98;;
18174;SDS011;9212;50.894;16.714;2022-08-19T01:28:53;16.23;;;9.55;;
18174;SDS011;9212;50.894;16.714;2022-08-19T01:31:22;15.00;;;9.98;;
18174;SDS011;9212;50.894;16.714;2022-08-19T01:33:51;14.95;;;9.93;;
18174;SDS011;9212;50.894;16.714;2022-08-19T01:36:22;15.73;;;9.88;;
18174;SDS011;9212;50.894;16.714;2022-08-19T01:38:50;15.38;;;9.98;;
18174;SDS011;9212;50.894;16.714;2022-08-19T01:41:19;14.63;;;10.00;;
18174;SDS011;9212;50.894;16.714;2022-08-19T01:43:48;18.95;;;9.95;;
18174;SDS011;9212;50.894;16.714;2022-08-19T01:46:16;15.25;;;9.55;;
18174;SDS011;9212;50.894;16.714;2022-08-19T01:48:45;19.10;;;10.05;;
18174;SDS011;9212;50.894;16.714;2022-08-19T01:51:13;16.35;;;9.68;;
18174;SDS011;9212;50.894;16.714;2022-08-19T01:53:40;13.95;;;10.00;;
18174;SDS011;9212;50.894;16.714;2022-08-19T01:56:08;14.13;;;9.43;;
18174;SDS011;9212;50.894;16.714;2022-08-19T01:58:43;14.10;;;9.75;;
18174;SDS011;9212;50.894;16.714;2022-08-19T02:01:15;16.42;;;10.77;;
18174;SDS011;9212;50.894;16.714;2022-08-19T02:03:43;16.90;;;9.68;;
18174;SDS011;9212;50.894;16.714;2022-08-19T02:06:11;12.75;;;9.88;;
18174;SDS011;9212;50.894;16.714;2022-08-19T02:08:39;19.48;;;10.63;;
18174;SDS011;9212;50.894;16.714;2022-08-19T02:11:06;18.70;;;11.07;;
18174;SDS011;9212;50.894;16.714;2022-08-19T02:13:34;15.48;;;10.30;;
18174;SDS011;9212;50.894;16.714;2022-08-19T02:16:03;20.52;;;10.48;;
18174;SDS011;9212;50.894;16.714;2022-08-19T02:18:30;19.85;;;10.80;;
18174;SDS011;9212;50.894;16.714;2022-08-19T02:20:58;16.83;;;10.32;;
18174;SDS011;9212;50.894;16.714;2022-08-19T02:23:25;20.77;;;11.30;;
18174;SDS011;9212;50.894;16.714;2022-08-19T02:25:53;15.63;;;11.00;;
18174;SDS011;9212;50.894;16.714;2022-08-19T02:28:20;16.40;;;10.93;;
18174;SDS011;9212;50.894;16.714;2022-08-19T02:30:47;20.77;;;11.23;;
18174;SDS011;9212;50.894;16.714;2022-08-19T02:33:16;15.35;;;11.40;;
18174;SDS011;9212;50.894;16.714;2022-08-19T02:35:43;21.65;;;11.60;;
18174;SDS011;9212;50.894;16.714;2022-08-19T02:38:10;18.13;;;11.60;;
18174;SDS011;9212;50.894;16.714;2022-08-19T02:40:53;16.40;;;10.73;;
18174;SDS011;9212;50.894;16.714;2022-08-19T02:43:23;17.23;;;11.05;;
18174;SDS011;9212;50.894;16.714;2022-08-19T02:45:51;16.60;;;10.82;;
18174;SDS011;9212;50.894;16.714;2022-08-19T02:48:21;18.60;;;11.80;;
18174;SDS011;9212;50.894;16.714;2022-08-19T02:50:50;17.33;;;11.38;;
18174;SDS011;9212;50.894;16.714;2022-08-19T02:53:20;19.73;;;11.65;;
18174;SDS011;9212;50.894;16.714;2022-08-19T02:55:50;15.82;;;10.52;;
18174;SDS011;9212;50.894;16.714;2022-08-19T02:58:18;20.23;;;10.98;;
18174;SDS011;9212;50.894;16.714;2022-08-19T03:00:46;14.63;;;11.15;;
18174;SDS011;9212;50.894;16.714;2022-08-19T03:03:15;17.90;;;11.65;;
18174;SDS011;9212;50.894;16.714;2022-08-19T03:05:45;18.20;;;10.60;;
18174;SDS011;9212;50.894;16.714;2022-08-19T03:08:12;18.50;;;11.63;;
18174;SDS011;9212;50.894;16.714;2022-08-19T03:10:40;16.30;;;11.52;;
18174;SDS011;9212;50.894;16.714;2022-08-19T03:13:10;17.17;;;11.52;;
18174;SDS011;9212;50.894;16.714;2022-08-19T03:15:39;17.80;;;12.60;;
18174;SDS011;9212;50.894;16.714;2022-08-19T03:18:07;21.70;;;11.88;;
18174;SDS011;9212;50.894;16.714;2022-08-19T03:20:37;18.42;;;12.05;;
18174;SDS011;9212;50.894;16.714;2022-08-19T03:23:08;16.45;;;12.23;;
18174;SDS011;9212;50.894;16.714;2022-08-19T03:25:38;18.70;;;11.93;;
18174;SDS011;9212;50.894;16.714;2022-08-19T03:28:08;16.27;;;11.18;;
18174;SDS011;9212;50.894;16.714;2022-08-19T03:30:37;19.33;;;11.65;;
18174;SDS011;9212;50.894;16.714;2022-08-19T03:33:05;20.42;;;12.43;;
18174;SDS011;9212;50.894;16.714;2022-08-19T03:35:34;16.15;;;12.30;;
18174;SDS011;9212;50.894;16.714;2022-08-19T03:38:01;18.15;;;12.45;;
18174;SDS011;9212;50.894;16.714;2022-08-19T03:40:30;21.23;;;12.45;;
18174;SDS011;9212;50.894;16.714;2022-08-19T03:42:57;18.77;;;12.80;;
18174;SDS011;9212;50.894;16.714;2022-08-19T03:45:25;18.80;;;12.60;;
18174;SDS011;9212;50.894;16.714;2022-08-19T03:47:52;23.02;;;13.20;;
18174;SDS011;9212;50.894;16.714;2022-08-19T03:50:20;21.27;;;13.60;;
18174;SDS011;9212;50.894;16.714;2022-08-19T03:52:48;19.25;;;13.15;;
18174;SDS011;9212;50.894;16.714;2022-08-19T03:55:16;20.48;;;13.18;;
18174;SDS011;9212;50.894;16.714;2022-08-19T03:57:45;22.90;;;13.15;;
18174;SDS011;9212;50.894;16.714;2022-08-19T04:00:14;17.67;;;11.90;;
18174;SDS011;9212;50.894;16.714;2022-08-19T04:02:41;20.92;;;13.23;;
18174;SDS011;9212;50.894;16.714;2022-08-19T04:05:09;20.75;;;13.18;;
18174;SDS011;9212;50.894;16.714;2022-08-19T04:07:36;19.38;;;12.60;;
18174;SDS011;9212;50.894;16.714;2022-08-19T04:10:04;17.30;;;12.60;;
18174;SDS011;9212;50.894;16.714;2022-08-19T04:12:31;21.00;;;12.70;;
18174;SDS011;9212;50.894;16.714;2022-08-19T04:15:00;18.17;;;12.45;;
18174;SDS011;9212;50.894;16.714;2022-08-19T04:17:28;22.65;;;12.93;;
18174;SDS011;9212;50.894;16.714;2022-08-19T04:19:55;19.25;;;12.02;;
18174;SDS011;9212;50.894;16.714;2022-08-19T04:22:22;19.45;;;12.85;;
18174;SDS011;9212;50.894;16.714;2022-08-19T04:24:49;21.30;;;12.85;;
18174;SDS011;9212;50.894;16.714;2022-08-19T04:27:17;22.58;;;12.77;;
18174;SDS011;9212;50.894;16.714;2022-08-19T04:29:44;17.90;;;13.10;;
18174;SDS011;9212;50.894;16.714;2022-08-19T04:32:14;22.05;;;12.32;;
18174;SDS011;9212;50.894;16.714;2022-08-19T04:34:41;18.00;;;12.20;;
18174;SDS011;9212;50.894;16.714;2022-08-19T04:37:08;21.00;;;12.88;;
18174;SDS011;9212;50.894;16.714;2022-08-19T04:39:36;17.08;;;11.40;;
18174;SDS011;9212;50.894;16.714;2022-08-19T04:42:21;19.83;;;11.70;;
18174;SDS011;9212;50.894;16.714;2022-08-19T04:45:08;19.48;;;11.82;;
18174;SDS011;9212;50.894;16.714;2022-08-19T04:47:37;21.08;;;11.10;;
18174;SDS011;9212;50.894;16.714;2022-08-19T04:50:05;20.80;;;12.00;;
18174;SDS011;9212;50.894;16.714;2022-08-19T04:52:32;16.70;;;11.38;;
18174;SDS011;9212;50.894;16.714;2022-08-19T04:55:00;13.95;;;11.23;;
18174;SDS011;9212;50.894;16.714;2022-08-19T04:57:27;18.35;;;11.38;;
18174;SDS011;9212;50.894;16.714;2022-08-19T04:59:55;14.75;;;10.25;;
18174;SDS011;9212;50.894;16.714;2022-08-19T05:02:23;15.07;;;10.85;;
18174;SDS011;9212;50.894;16.714;2022-08-19T05:04:55;17.67;;;11.23;;
18174;SDS011;9212;50.894;16.714;2022-08-19T05:07:24;15.82;;;11.35;;
18174;SDS011;9212;50.894;16.714;2022-08-19T05:09:52;19.05;;;11.40;;
18174;SDS011;9212;50.894;16.714;2022-08-19T05:12:19;16.77;;;11.38;;
18174;SDS011;9212;50.894;16.714;2022-08-19T05:14:46;19.35;;;10.60;;
18174;SDS011;9212;50.894;16.714;2022-08-19T05:17:14;21.13;;;10.93;;
18174;SDS011;9212;50.894;16.714;2022-08-19T05:19:42;14.63;;;10.60;;
18174;SDS011;9212;50.894;16.714;2022-08-19T05:22:28;18.70;;;11.27;;
18174;SDS011;9212;50.894;16.714;2022-08-19T05:25:01;15.20;;;10.73;;
18174;SDS011;9212;50.894;16.714;2022-08-19T05:27:28;16.92;;;11.23;;
18174;SDS011;9212;50.894;16.714;2022-08-19T05:29:56;16.13;;;11.43;;
18174;SDS011;9212;50.894;16.714;2022-08-19T05:32:23;14.13;;;10.10;;
18174;SDS011;9212;50.894;16.714;2022-08-19T05:34:50;19.52;;;11.10;;
18174;SDS011;9212;50.894;16.714;2022-08-19T05:37:18;16.48;;;10.38;;
18174;SDS011;9212;50.894;16.714;2022-08-19T05:39:47;16.20;;;10.73;;
18174;SDS011;9212;50.894;16.714;2022-08-19T05:42:14;15.57;;;10.77;;
18174;SDS011;9212;50.894;16.714;2022-08-19T05:44:45;15.80;;;10.80;;
18174;SDS011;9212;50.894;16.714;2022-08-19T05:47:14;15.95;;;9.55;;
18174;SDS011;9212;50.894;16.714;2022-08-19T05:49:42;13.57;;;9.32;;
18174;SDS011;9212;50.894;16.714;2022-08-19T05:52:10;11.93;;;9.02;;
18174;SDS011;9212;50.894;16.714;2022-08-19T05:54:38;20.60;;;10.07;;
18174;SDS011;9212;50.894;16.714;2022-08-19T05:57:08;15.90;;;10.13;;
18174;SDS011;9212;50.894;16.714;2022-08-19T05:59:35;40.03;;;11.40;;
18174;SDS011;9212;50.894;16.714;2022-08-19T06:02:03;41.05;;;12.43;;
18174;SDS011;9212;50.894;16.714;2022-08-19T06:04:31;63.50;;;13.90;;
18174;SDS011;9212;50.894;16.714;2022-08-19T06:06:59;44.78;;;12.52;;
18174;SDS011;9212;50.894;16.714;2022-08-19T06:09:27;36.90;;;10.73;;
18174;SDS011;9212;50.894;16.714;2022-08-19T06:11:54;45.08;;;12.10;;
18174;SDS011;9212;50.894;16.714;2022-08-19T06:14:26;40.92;;;10.82;;
18174;SDS011;9212;50.894;16.714;2022-08-19T06:16:56;38.85;;;10.57;;
18174;SDS011;9212;50.894;16.714;2022-08-19T06:19:25;36.28;;;10.82;;
18174;SDS011;9212;50.894;16.714;2022-08-19T06:21:55;43.15;;;10.45;;
18174;SDS011;9212;50.894;16.714;2022-08-19T06:24:24;35.13;;;10.38;;
18174;SDS011;9212;50.894;16.714;2022-08-19T06:26:52;32.35;;;10.27;;
18174;SDS011;9212;50.894;16.714;2022-08-19T06:29:21;28.02;;;10.00;;
18174;SDS011;9212;50.894;16.714;2022-08-19T06:31:55;19.83;;;9.25;;
18174;SDS011;9212;50.894;16.714;2022-08-19T06:34:23;9.65;;;8.45;;
18174;SDS011;9212;50.894;16.714;2022-08-19T06:36:52;18.42;;;9.55;;
18174;SDS011;9212;50.894;16.714;2022-08-19T06:39:20;13.80;;;8.77;;
18174;SDS011;9212;50.894;16.714;2022-08-19T06:41:50;14.43;;;8.43;;
18174;SDS011;9212;50.894;16.714;2022-08-19T06:44:20;16.30;;;8.75;;
18174;SDS011;9212;50.894;16.714;2022-08-19T06:46:47;16.67;;;9.07;;
18174;SDS011;9212;50.894;16.714;2022-08-19T06:49:16;15.15;;;9.23;;
18174;SDS011;9212;50.894;16.714;2022-08-19T06:51:44;11.18;;;9.20;;
18174;SDS011;9212;50.894;16.714;2022-08-19T06:54:12;17.80;;;9.10;;
18174;SDS011;9212;50.894;16.714;2022-08-19T06:56:40;16.67;;;8.60;;
18174;SDS011;9212;50.894;16.714;2022-08-19T06:59:11;16.55;;;8.32;;
18174;SDS011;9212;50.894;16.714;2022-08-19T07:01:39;14.18;;;9.00;;
18174;SDS011;9212;50.894;16.714;2022-08-19T07:04:08;11.60;;;7.85;;
18174;SDS011;9212;50.894;16.714;2022-08-19T07:06:37;13.75;;;7.65;;
18174;SDS011;9212;50.894;16.714;2022-08-19T07:09:04;11.35;;;8.68;;
18174;SDS011;9212;50.894;16.714;2022-08-19T07:11:32;13.13;;;7.75;;
18174;SDS011;9212;50.894;16.714;2022-08-19T07:13:59;15.30;;;8.05;;
18174;SDS011;9212;50.894;16.714;2022-08-19T07:16:27;14.88;;;7.65;;
18174;SDS011;9212;50.894;16.714;2022-08-19T07:18:54;9.85;;;7.28;;
18174;SDS011;9212;50.894;16.714;2022-08-19T07:21:23;11.52;;;7.18;;
18174;SDS011;9212;50.894;16.714;2022-08-19T07:23:53;18.85;;;7.50;;
18174;SDS011;9212;50.894;16.714;2022-08-19T07:26:22;17.52;;;7.80;;
18174;SDS011;9212;50.894;16.714;2022-08-19T07:28:49;11.43;;;7.07;;
18174;SDS011;9212;50.894;16.714;2022-08-19T07:31:17;13.30;;;6.80;;
18174;SDS011;9212;50.894;16.714;2022-08-19T07:33:46;10.95;;;6.45;;
18174;SDS011;9212;50.894;16.714;2022-08-19T07:36:14;12.00;;;6.15;;
18174;SDS011;9212;50.894;16.714;2022-08-19T07:38:44;13.40;;;6.30;;
18174;SDS011;9212;50.894;16.714;2022-08-19T07:41:15;10.65;;;5.85;;
18174;SDS011;9212;50.894;16.714;2022-08-19T07:43:42;8.32;;;5.28;;
18174;SDS011;9212;50.894;16.714;2022-08-19T07:46:11;9.48;;;5.28;;
18174;SDS011;9212;50.894;16.714;2022-08-19T07:48:39;16.80;;;5.78;;
18174;SDS011;9212;50.894;16.714;2022-08-19T07:51:07;10.13;;;5.28;;
18174;SDS011;9212;50.894;16.714;2022-08-19T07:53:35;8.73;;;5.05;;
18174;SDS011;9212;50.894;16.714;2022-08-19T07:56:03;8.10;;;4.95;;
18174;SDS011;9212;50.894;16.714;2022-08-19T07:58:33;7.68;;;4.70;;
18174;SDS011;9212;50.894;16.714;2022-08-19T08:01:00;8.00;;;4.70;;
18174;SDS011;9212;50.894;16.714;2022-08-19T08:03:28;16.20;;;4.75;;
18174;SDS011;9212;50.894;16.714;2022-08-19T08:06:14;6.63;;;4.40;;
18174;SDS011;9212;50.894;16.714;2022-08-19T08:08:59;8.32;;;4.80;;
18174;SDS011;9212;50.894;16.714;2022-08-19T08:11:43;6.97;;;4.60;;
18174;SDS011;9212;50.894;16.714;2022-08-19T08:14:16;6.75;;;4.57;;
18174;SDS011;9212;50.894;16.714;2022-08-19T08:16:44;7.13;;;4.80;;
18174;SDS011;9212;50.894;16.714;2022-08-19T08:19:12;9.32;;;5.40;;
18174;SDS011;9212;50.894;16.714;2022-08-19T08:21:41;6.60;;;4.22;;
18174;SDS011;9212;50.894;16.714;2022-08-19T08:24:08;6.93;;;4.57;;
18174;SDS011;9212;50.894;16.714;2022-08-19T08:26:36;7.03;;;4.65;;
18174;SDS011;9212;50.894;16.714;2022-08-19T08:29:03;7.70;;;4.60;;
18174;SDS011;9212;50.894;16.714;2022-08-19T08:31:34;11.75;;;4.53;;
18174;SDS011;9212;50.894;16.714;2022-08-19T08:34:01;5.47;;;4.50;;
18174;SDS011;9212;50.894;16.714;2022-08-19T08:36:29;6.43;;;4.63;;
18174;SDS011;9212;50.894;16.714;2022-08-19T08:38:58;8.02;;;4.55;;
18174;SDS011;9212;50.894;16.714;2022-08-19T08:41:27;7.28;;;4.70;;
18174;SDS011;9212;50.894;16.714;2022-08-19T08:43:55;10.48;;;4.35;;
18174;SDS011;9212;50.894;16.714;2022-08-19T08:46:24;5.63;;;4.35;;
18174;SDS011;9212;50.894;16.714;2022-08-19T08:48:56;7.88;;;4.80;;
18174;SDS011;9212;50.894;16.714;2022-08-19T08:51:25;5.68;;;4.03;;
18174;SDS011;9212;50.894;16.714;2022-08-19T08:53:55;7.75;;;4.05;;
18174;SDS011;9212;50.894;16.714;2022-08-19T08:56:22;4.88;;;4.07;;
18174;SDS011;9212;50.894;16.714;2022-08-19T08:58:52;5.75;;;4.45;;
18174;SDS011;9212;50.894;16.714;2022-08-19T09:01:22;5.75;;;4.28;;
18174;SDS011;9212;50.894;16.714;2022-08-19T09:03:50;6.85;;;4.30;;
18174;SDS011;9212;50.894;16.714;2022-08-19T09:06:21;7.43;;;4.70;;
18174;SDS011;9212;50.894;16.714;2022-08-19T09:08:52;6.15;;;4.00;;
18174;SDS011;9212;50.894;16.714;2022-08-19T09:11:25;7.43;;;4.82;;
18174;SDS011;9212;50.894;16.714;2022-08-19T09:13:59;8.52;;;5.00;;
18174;SDS011;9212;50.894;16.714;2022-08-19T09:16:28;7.82;;;4.30;;
18174;SDS011;9212;50.894;16.714;2022-08-19T09:18:57;7.40;;;4.43;;
18174;SDS011;9212;50.894;16.714;2022-08-19T09:21:28;7.20;;;4.22;;
18174;SDS011;9212;50.894;16.714;2022-08-19T09:23:55;7.88;;;4.10;;
18174;SDS011;9212;50.894;16.714;2022-08-19T09:26:24;8.98;;;4.40;;
18174;SDS011;9212;50.894;16.714;2022-08-19T09:28:52;6.28;;;4.38;;
18174;SDS011;9212;50.894;16.714;2022-08-19T09:31:20;4.55;;;3.90;;
18174;SDS011;9212;50.894;16.714;2022-08-19T09:33:48;5.25;;;4.55;;
18174;SDS011;9212;50.894;16.714;2022-08-19T09:36:16;8.35;;;4.93;;
18174;SDS011;9212;50.894;16.714;2022-08-19T09:38:46;9.02;;;4.00;;
18174;SDS011;9212;50.894;16.714;2022-08-19T09:41:14;6.97;;;4.32;;
18174;SDS011;9212;50.894;16.714;2022-08-19T09:43:43;8.25;;;4.70;;
18174;SDS011;9212;50.894;16.714;2022-08-19T09:46:11;6.32;;;4.22;;
18174;SDS011;9212;50.894;16.714;2022-08-19T09:48:42;5.05;;;4.32;;
18174;SDS011;9212;50.894;16.714;2022-08-19T09:51:13;3.75;;;3.03;;
18174;SDS011;9212;50.894;16.714;2022-08-19T09:53:41;3.63;;;3.10;;
18174;SDS011;9212;50.894;16.714;2022-08-19T09:56:10;3.55;;;3.25;;
18174;SDS011;9212;50.894;16.714;2022-08-19T09:58:37;8.10;;;3.15;;
18174;SDS011;9212;50.894;16.714;2022-08-19T10:01:05;3.35;;;2.95;;
18174;SDS011;9212;50.894;16.714;2022-08-19T10:03:33;6.72;;;2.95;;
18174;SDS011;9212;50.894;16.714;2022-08-19T10:06:02;3.35;;;3.05;;
18174;SDS011;9212;50.894;16.714;2022-08-19T10:08:30;3.95;;;2.67;;
18174;SDS011;9212;50.894;16.714;2022-08-19T10:10:58;3.85;;;2.90;;
18174;SDS011;9212;50.894;16.714;2022-08-19T10:13:28;3.85;;;2.92;;
18174;SDS011;9212;50.894;16.714;2022-08-19T10:15:57;9.43;;;3.08;;
18174;SDS011;9212;50.894;16.714;2022-08-19T10:18:28;4.93;;;3.05;;
18174;SDS011;9212;50.894;16.714;2022-08-19T10:21:02;4.15;;;2.80;;
18174;SDS011;9212;50.894;16.714;2022-08-19T10:23:30;5.40;;;3.22;;
18174;SDS011;9212;50.894;16.714;2022-08-19T10:25:59;6.47;;;3.38;;
18174;SDS011;9212;50.894;16.714;2022-08-19T10:28:27;5.05;;;3.13;;
18174;SDS011;9212;50.894;16.714;2022-08-19T10:30:55;4.75;;;3.30;;
18174;SDS011;9212;50.894;16.714;2022-08-19T10:33:22;6.30;;;3.15;;
18174;SDS011;9212;50.894;16.714;2022-08-19T10:35:57;3.80;;;3.10;;
18174;SDS011;9212;50.894;16.714;2022-08-19T10:38:25;3.25;;;2.95;;
18174;SDS011;9212;50.894;16.714;2022-08-19T10:40:53;7.70;;;3.33;;
18174;SDS011;9212;50.894;16.714;2022-08-19T10:43:21;4.43;;;2.97;;
18174;SDS011;9212;50.894;16.714;2022-08-19T10:45:52;4.15;;;3.55;;
18174;SDS011;9212;50.894;16.714;2022-08-19T10:48:21;4.55;;;3.58;;
18174;SDS011;9212;50.894;16.714;2022-08-19T10:50:49;6.35;;;3.33;;
18174;SDS011;9212;50.894;16.714;2022-08-19T10:53:34;5.20;;;3.20;;
18174;SDS011;9212;50.894;16.714;2022-08-19T10:56:01;3.90;;;2.75;;
18174;SDS011;9212;50.894;16.714;2022-08-19T10:58:46;6.03;;;3.72;;
18174;SDS011;9212;50.894;16.714;2022-08-19T11:01:15;6.80;;;3.30;;
18174;SDS011;9212;50.894;16.714;2022-08-19T11:03:42;6.20;;;3.40;;
18174;SDS011;9212;50.894;16.714;2022-08-19T11:06:10;5.15;;;3.88;;
18174;SDS011;9212;50.894;16.714;2022-08-19T11:08:37;5.22;;;2.97;;
18174;SDS011;9212;50.894;16.714;2022-08-19T11:11:05;5.43;;;3.97;;
18174;SDS011;9212;50.894;16.714;2022-08-19T11:13:34;4.85;;;3.35;;
18174;SDS011;9212;50.894;16.714;2022-08-19T11:16:03;3.28;;;3.00;;
18174;SDS011;9212;50.894;16.714;2022-08-19T11:18:33;3.70;;;3.40;;
18174;SDS011;9212;50.894;16.714;2022-08-19T11:21:11;3.80;;;3.40;;
18174;SDS011;9212;50.894;16.714;2022-08-19T11:23:39;4.63;;;3.25;;
18174;SDS011;9212;50.894;16.714;2022-08-19T11:26:06;4.85;;;3.17;;
18174;SDS011;9212;50.894;16.714;2022-08-19T11:28:34;5.60;;;3.20;;
18174;SDS011;9212;50.894;16.714;2022-08-19T11:31:01;6.88;;;3.20;;
18174;SDS011;9212;50.894;16.714;2022-08-19T11:33:29;7.40;;;3.80;;
18174;SDS011;9212;50.894;16.714;2022-08-19T11:35:59;5.32;;;3.80;;
18174;SDS011;9212;50.894;16.714;2022-08-19T11:38:27;4.70;;;3.13;;
18174;SDS011;9212;50.894;16.714;2022-08-19T11:40:56;4.20;;;3.42;;
18174;SDS011;9212;50.894;16.714;2022-08-19T11:43:23;7.00;;;3.53;;
18174;SDS011;9212;50.894;16.714;2022-08-19T11:45:51;6.38;;;3.60;;
18174;SDS011;9212;50.894;16.714;2022-08-19T11:48:19;6.28;;;3.80;;
18174;SDS011;9212;50.894;16.714;2022-08-19T11:50:47;7.22;;;4.05;;
18174;SDS011;9212;50.894;16.714;2022-08-19T11:53:16;6.35;;;3.80;;
18174;SDS011;9212;50.894;16.714;2022-08-19T11:55:44;5.78;;;3.63;;
18174;SDS011;9212;50.894;16.714;2022-08-19T11:58:11;9.10;;;4.00;;
18174;SDS011;9212;50.894;16.714;2022-08-19T12:00:39;7.00;;;3.72;;
18174;SDS011;9212;50.894;16.714;2022-08-19T12:03:06;4.28;;;3.65;;
18174;SDS011;9212;50.894;16.714;2022-08-19T12:05:36;7.05;;;3.90;;
18174;SDS011;9212;50.894;16.714;2022-08-19T12:08:03;11.52;;;4.05;;
18174;SDS011;9212;50.894;16.714;2022-08-19T12:10:32;5.22;;;3.78;;
18174;SDS011;9212;50.894;16.714;2022-08-19T12:12:59;5.53;;;3.35;;
18174;SDS011;9212;50.894;16.714;2022-08-19T12:15:27;4.45;;;3.60;;
18174;SDS011;9212;50.894;16.714;2022-08-19T12:17:54;4.88;;;3.67;;
18174;SDS011;9212;50.894;16.714;2022-08-19T12:20:22;7.32;;;3.10;;
18174;SDS011;9212;50.894;16.714;2022-08-19T12:22:49;7.80;;;3.53;;
18174;SDS011;9212;50.894;16.714;2022-08-19T12:25:17;11.35;;;4.00;;
18174;SDS011;9212;50.894;16.714;2022-08-19T12:27:46;10.45;;;4.35;;
18174;SDS011;9212;50.894;16.714;2022-08-19T12:30:14;11.00;;;4.10;;
18174;SDS011;9212;50.894;16.714;2022-08-19T12:32:42;7.70;;;3.78;;
18174;SDS011;9212;50.894;16.714;2022-08-19T12:35:09;7.10;;;3.78;;
18174;SDS011;9212;50.894;16.714;2022-08-19T12:37:37;10.95;;;3.90;;
18174;SDS011;9212;50.894;16.714;2022-08-19T12:40:04;5.68;;;3.78;;
18174;SDS011;9212;50.894;16.714;2022-08-19T12:42:31;7.82;;;3.95;;
18174;SDS011;9212;50.894;16.714;2022-08-19T12:45:01;4.55;;;3.88;;
18174;SDS011;9212;50.894;16.714;2022-08-19T12:47:28;7.95;;;3.80;;
18174;SDS011;9212;50.894;16.714;2022-08-19T12:49:55;7.55;;;3.63;;
18174;SDS011;9212;50.894;16.714;2022-08-19T12:52:23;5.97;;;3.80;;
18174;SDS011;9212;50.894;16.714;2022-08-19T12:54:51;5.40;;;4.18;;
18174;SDS011;9212;50.894;16.714;2022-08-19T12:57:19;10.57;;;4.15;;
18174;SDS011;9212;50.894;16.714;2022-08-19T12:59:46;4.65;;;3.40;;
18174;SDS011;9212;50.894;16.714;2022-08-19T13:02:15;6.57;;;3.83;;
18174;SDS011;9212;50.894;16.714;2022-08-19T13:04:42;4.05;;;3.58;;
18174;SDS011;9212;50.894;16.714;2022-08-19T13:07:09;9.65;;;4.00;;
18174;SDS011;9212;50.894;16.714;2022-08-19T13:09:36;4.15;;;3.20;;
18174;SDS011;9212;50.894;16.714;2022-08-19T13:12:06;4.00;;;3.63;;
18174;SDS011;9212;50.894;16.714;2022-08-19T13:14:37;11.10;;;3.80;;
18174;SDS011;9212;50.894;16.714;2022-08-19T13:17:05;8.48;;;3.60;;
18174;SDS011;9212;50.894;16.714;2022-08-19T13:19:35;8.15;;;3.70;;
18174;SDS011;9212;50.894;16.714;2022-08-19T13:22:02;3.88;;;3.58;;
18174;SDS011;9212;50.894;16.714;2022-08-19T13:24:29;6.10;;;3.55;;
18174;SDS011;9212;50.894;16.714;2022-08-19T13:26:58;4.50;;;3.50;;
18174;SDS011;9212;50.894;16.714;2022-08-19T13:29:25;6.97;;;3.78;;
18174;SDS011;9212;50.894;16.714;2022-08-19T13:32:10;5.30;;;3.08;;
18174;SDS011;9212;50.894;16.714;2022-08-19T13:35:11;7.70;;;3.45;;
18174;SDS011;9212;50.894;16.714;2022-08-19T13:37:38;3.85;;;3.35;;
18174;SDS011;9212;50.894;16.714;2022-08-19T13:40:09;3.70;;;3.30;;
18174;SDS011;9212;50.894;16.714;2022-08-19T13:42:39;5.25;;;3.30;;
18174;SDS011;9212;50.894;16.714;2022-08-19T13:45:07;4.72;;;3.28;;
18174;SDS011;9212;50.894;16.714;2022-08-19T13:47:34;4.07;;;3.50;;
18174;SDS011;9212;50.894;16.714;2022-08-19T13:50:08;8.93;;;3.53;;
18174;SDS011;9212;50.894;16.714;2022-08-19T13:52:37;4.20;;;3.28;;
18174;SDS011;9212;50.894;16.714;2022-08-19T13:55:05;6.07;;;3.10;;
18174;SDS011;9212;50.894;16.714;2022-08-19T13:57:33;3.88;;;3.25;;
18174;SDS011;9212;50.894;16.714;2022-08-19T14:00:00;7.43;;;3.50;;
18174;SDS011;9212;50.894;16.714;2022-08-19T14:02:28;4.63;;;3.38;;
18174;SDS011;9212;50.894;16.714;2022-08-19T14:04:55;8.85;;;3.78;;
18174;SDS011;9212;50.894;16.714;2022-08-19T14:07:22;8.57;;;4.10;;
18174;SDS011;9212;50.894;16.714;2022-08-19T14:09:51;6.18;;;3.67;;
18174;SDS011;9212;50.894;16.714;2022-08-19T14:12:18;4.63;;;3.60;;
18174;SDS011;9212;50.894;16.714;2022-08-19T14:14:46;13.07;;;3.72;;
18174;SDS011;9212;50.894;16.714;2022-08-19T14:17:13;12.93;;;3.55;;
18174;SDS011;9212;50.894;16.714;2022-08-19T14:19:41;8.88;;;3.97;;
18174;SDS011;9212;50.894;16.714;2022-08-19T14:22:08;11.88;;;3.67;;
18174;SDS011;9212;50.894;16.714;2022-08-19T14:24:36;10.52;;;3.80;;
18174;SDS011;9212;50.894;16.714;2022-08-19T14:27:06;13.18;;;3.97;;
18174;SDS011;9212;50.894;16.714;2022-08-19T14:29:33;10.63;;;4.28;;
18174;SDS011;9212;50.894;16.714;2022-08-19T14:32:00;12.88;;;4.03;;
18174;SDS011;9212;50.894;16.714;2022-08-19T14:34:28;7.70;;;3.80;;
18174;SDS011;9212;50.894;16.714;2022-08-19T14:36:56;5.07;;;3.38;;
18174;SDS011;9212;50.894;16.714;2022-08-19T14:39:24;6.45;;;3.60;;
18174;SDS011;9212;50.894;16.714;2022-08-19T14:41:51;6.90;;;3.92;;
18174;SDS011;9212;50.894;16.714;2022-08-19T14:44:19;7.07;;;3.75;;
18174;SDS011;9212;50.894;16.714;2022-08-19T14:46:47;7.53;;;3.63;;